Terminal Aerodrome Forecast
Issued by NWS

Home | Current Version | Previous Version | Text Only | Print | Product List | Glossary On
Versions: 1 2 3 4 5 6 7 8 9 10 11 12
000
FTUS46 KMTR 180538
TAFSTS
TAF
KSTS 180538Z 1806/1906 00000KT P6SM SCT250
     FM181600 VRB03KT P6SM FEW200
     FM182200 17006KT P6SM SKC
     FM190400 00000KT P6SM SCT250=

USA.gov is the U.S. government's official web portal to all federal, state and local government web resources and services.